sensor_id;sensor_type;location;lat;lon;timestamp;P1;durP1;ratioP1;P2;durP2;ratioP2
3817;SDS011;1924;48.078;11.516;2024-03-29T00:00:49;29.30;;;0.80;;
3817;SDS011;1924;48.078;11.516;2024-03-29T00:03:15;29.30;;;0.80;;
3817;SDS011;1924;48.078;11.516;2024-03-29T00:05:41;29.17;;;0.80;;
3817;SDS011;1924;48.078;11.516;2024-03-29T00:08:07;29.20;;;0.80;;
3817;SDS011;1924;48.078;11.516;2024-03-29T00:10:34;29.40;;;0.80;;
3817;SDS011;1924;48.078;11.516;2024-03-29T00:12:59;29.30;;;0.80;;
3817;SDS011;1924;48.078;11.516;2024-03-29T00:15:25;29.30;;;0.80;;
3817;SDS011;1924;48.078;11.516;2024-03-29T00:17:51;29.20;;;0.80;;
3817;SDS011;1924;48.078;11.516;2024-03-29T00:20:17;29.20;;;0.80;;
3817;SDS011;1924;48.078;11.516;2024-03-29T00:22:43;29.40;;;0.80;;
3817;SDS011;1924;48.078;11.516;2024-03-29T00:25:08;29.27;;;0.80;;
3817;SDS011;1924;48.078;11.516;2024-03-29T00:27:36;29.20;;;0.80;;
3817;SDS011;1924;48.078;11.516;2024-03-29T00:30:02;29.40;;;0.80;;
3817;SDS011;1924;48.078;11.516;2024-03-29T00:32:28;29.30;;;0.80;;
3817;SDS011;1924;48.078;11.516;2024-03-29T00:34:53;29.20;;;0.80;;
3817;SDS011;1924;48.078;11.516;2024-03-29T00:37:20;29.20;;;0.80;;
3817;SDS011;1924;48.078;11.516;2024-03-29T00:39:45;29.17;;;0.80;;
3817;SDS011;1924;48.078;11.516;2024-03-29T00:42:11;29.17;;;0.80;;
3817;SDS011;1924;48.078;11.516;2024-03-29T00:44:39;29.20;;;0.80;;
3817;SDS011;1924;48.078;11.516;2024-03-29T05:01:05;28.90;;;0.80;;
3817;SDS011;1924;48.078;11.516;2024-03-29T05:03:33;29.00;;;0.80;;
3817;SDS011;1924;48.078;11.516;2024-03-29T05:06:00;28.80;;;0.80;;
3817;SDS011;1924;48.078;11.516;2024-03-29T05:08:27;28.90;;;0.80;;
3817;SDS011;1924;48.078;11.516;2024-03-29T05:10:53;28.77;;;0.80;;
3817;SDS011;1924;48.078;11.516;2024-03-29T05:13:20;28.77;;;0.80;;
3817;SDS011;1924;48.078;11.516;2024-03-29T05:15:47;28.63;;;0.80;;
3817;SDS011;1924;48.078;11.516;2024-03-29T05:18:15;28.90;;;0.80;;
3817;SDS011;1924;48.078;11.516;2024-03-29T05:20:42;28.90;;;0.80;;
3817;SDS011;1924;48.078;11.516;2024-03-29T05:23:12;28.90;;;0.80;;
3817;SDS011;1924;48.078;11.516;2024-03-29T05:25:39;28.70;;;0.80;;
3817;SDS011;1924;48.078;11.516;2024-03-29T05:28:06;28.80;;;0.80;;
3817;SDS011;1924;48.078;11.516;2024-03-29T05:30:32;28.80;;;0.80;;
3817;SDS011;1924;48.078;11.516;2024-03-29T05:33:00;28.80;;;0.80;;
3817;SDS011;1924;48.078;11.516;2024-03-29T05:35:29;28.90;;;0.80;;
3817;SDS011;1924;48.078;11.516;2024-03-29T05:37:55;28.97;;;0.80;;
3817;SDS011;1924;48.078;11.516;2024-03-29T05:40:23;28.90;;;0.80;;
3817;SDS011;1924;48.078;11.516;2024-03-29T05:42:52;28.37;;;0.80;;
3817;SDS011;1924;48.078;11.516;2024-03-29T05:45:23;28.87;;;0.80;;
3817;SDS011;1924;48.078;11.516;2024-03-29T05:47:51;28.90;;;0.80;;
3817;SDS011;1924;48.078;11.516;2024-03-29T05:50:19;29.00;;;0.80;;
3817;SDS011;1924;48.078;11.516;2024-03-29T05:52:47;28.60;;;0.80;;
3817;SDS011;1924;48.078;11.516;2024-03-29T05:55:14;28.90;;;0.80;;
3817;SDS011;1924;48.078;11.516;2024-03-29T05:57:41;28.87;;;0.80;;
3817;SDS011;1924;48.078;11.516;2024-03-29T06:00:10;28.87;;;0.80;;
3817;SDS011;1924;48.078;11.516;2024-03-29T06:02:38;28.87;;;0.80;;
3817;SDS011;1924;48.078;11.516;2024-03-29T06:05:05;28.83;;;0.80;;
3817;SDS011;1924;48.078;11.516;2024-03-29T06:07:33;29.00;;;0.80;;
3817;SDS011;1924;48.078;11.516;2024-03-29T06:10:02;29.00;;;0.80;;
3817;SDS011;1924;48.078;11.516;2024-03-29T06:12:29;29.10;;;0.80;;
3817;SDS011;1924;48.078;11.516;2024-03-29T06:14:56;29.00;;;0.80;;
3817;SDS011;1924;48.078;11.516;2024-03-29T06:17:40;29.00;;;0.80;;
3817;SDS011;1924;48.078;11.516;2024-03-29T06:20:07;29.00;;;0.80;;
3817;SDS011;1924;48.078;11.516;2024-03-29T06:22:34;29.00;;;0.80;;
3817;SDS011;1924;48.078;11.516;2024-03-29T06:25:02;29.00;;;0.80;;
3817;SDS011;1924;48.078;11.516;2024-03-29T06:27:30;29.10;;;0.80;;
3817;SDS011;1924;48.078;11.516;2024-03-29T06:29:57;29.20;;;0.80;;
3817;SDS011;1924;48.078;11.516;2024-03-29T06:32:24;29.20;;;0.80;;
3817;SDS011;1924;48.078;11.516;2024-03-29T06:34:51;29.20;;;0.80;;
3817;SDS011;1924;48.078;11.516;2024-03-29T06:37:17;29.27;;;0.80;;
3817;SDS011;1924;48.078;11.516;2024-03-29T06:39:46;29.40;;;0.80;;
3817;SDS011;1924;48.078;11.516;2024-03-29T06:42:14;29.27;;;0.80;;
3817;SDS011;1924;48.078;11.516;2024-03-29T06:44:41;29.30;;;0.80;;
3817;SDS011;1924;48.078;11.516;2024-03-29T06:47:08;29.23;;;0.80;;
3817;SDS011;1924;48.078;11.516;2024-03-29T06:49:35;29.40;;;0.80;;
3817;SDS011;1924;48.078;11.516;2024-03-29T06:52:02;29.57;;;0.80;;
3817;SDS011;1924;48.078;11.516;2024-03-29T06:54:29;29.40;;;0.80;;
3817;SDS011;1924;48.078;11.516;2024-03-29T06:56:57;29.40;;;0.80;;
3817;SDS011;1924;48.078;11.516;2024-03-29T06:59:26;29.57;;;0.80;;
3817;SDS011;1924;48.078;11.516;2024-03-29T07:01:53;29.50;;;0.80;;
3817;SDS011;1924;48.078;11.516;2024-03-29T07:04:20;29.50;;;0.80;;
3817;SDS011;1924;48.078;11.516;2024-03-29T07:06:47;29.60;;;0.80;;
3817;SDS011;1924;48.078;11.516;2024-03-29T07:09:16;29.57;;;0.80;;
3817;SDS011;1924;48.078;11.516;2024-03-29T07:11:44;29.70;;;0.80;;
3817;SDS011;1924;48.078;11.516;2024-03-29T07:14:11;29.80;;;0.80;;
3817;SDS011;1924;48.078;11.516;2024-03-29T07:16:39;29.80;;;0.80;;
3817;SDS011;1924;48.078;11.516;2024-03-29T07:19:06;29.80;;;0.80;;
3817;SDS011;1924;48.078;11.516;2024-03-29T07:21:33;30.00;;;0.80;;
3817;SDS011;1924;48.078;11.516;2024-03-29T07:24:00;30.03;;;0.80;;
3817;SDS011;1924;48.078;11.516;2024-03-29T07:26:26;30.10;;;0.80;;
3817;SDS011;1924;48.078;11.516;2024-03-29T07:28:53;30.17;;;0.80;;
3817;SDS011;1924;48.078;11.516;2024-03-29T07:31:20;30.23;;;0.80;;
3817;SDS011;1924;48.078;11.516;2024-03-29T07:33:48;30.47;;;0.80;;
3817;SDS011;1924;48.078;11.516;2024-03-29T07:36:14;30.50;;;0.80;;
3817;SDS011;1924;48.078;11.516;2024-03-29T07:38:41;30.80;;;0.80;;
3817;SDS011;1924;48.078;11.516;2024-03-29T07:41:08;31.00;;;0.80;;
3817;SDS011;1924;48.078;11.516;2024-03-29T07:43:38;30.87;;;0.80;;
3817;SDS011;1924;48.078;11.516;2024-03-29T07:46:06;31.20;;;0.80;;
3817;SDS011;1924;48.078;11.516;2024-03-29T07:48:34;31.17;;;0.80;;
3817;SDS011;1924;48.078;11.516;2024-03-29T07:51:02;31.20;;;0.80;;
3817;SDS011;1924;48.078;11.516;2024-03-29T07:53:29;31.30;;;0.80;;
3817;SDS011;1924;48.078;11.516;2024-03-29T07:55:55;31.53;;;0.80;;
3817;SDS011;1924;48.078;11.516;2024-03-29T07:58:22;31.50;;;0.80;;
3817;SDS011;1924;48.078;11.516;2024-03-29T08:00:49;31.70;;;0.80;;
3817;SDS011;1924;48.078;11.516;2024-03-29T08:03:17;31.60;;;0.80;;
3817;SDS011;1924;48.078;11.516;2024-03-29T08:05:53;31.80;;;0.80;;
3817;SDS011;1924;48.078;11.516;2024-03-29T08:08:24;31.90;;;0.80;;
3817;SDS011;1924;48.078;11.516;2024-03-29T08:10:52;32.10;;;0.80;;
3817;SDS011;1924;48.078;11.516;2024-03-29T08:13:19;32.20;;;0.80;;
3817;SDS011;1924;48.078;11.516;2024-03-29T08:15:47;32.30;;;0.80;;
3817;SDS011;1924;48.078;11.516;2024-03-29T08:18:14;32.03;;;0.80;;
3817;SDS011;1924;48.078;11.516;2024-03-29T08:20:40;32.30;;;0.80;;
3817;SDS011;1924;48.078;11.516;2024-03-29T08:23:08;32.13;;;0.80;;
3817;SDS011;1924;48.078;11.516;2024-03-29T08:25:37;32.10;;;0.80;;
3817;SDS011;1924;48.078;11.516;2024-03-29T08:28:03;32.27;;;0.80;;
3817;SDS011;1924;48.078;11.516;2024-03-29T08:30:30;32.43;;;0.80;;
3817;SDS011;1924;48.078;11.516;2024-03-29T08:33:00;32.50;;;0.80;;
3817;SDS011;1924;48.078;11.516;2024-03-29T08:35:28;32.47;;;0.80;;
3817;SDS011;1924;48.078;11.516;2024-03-29T08:37:55;32.40;;;0.80;;
3817;SDS011;1924;48.078;11.516;2024-03-29T08:40:21;32.20;;;0.80;;
3817;SDS011;1924;48.078;11.516;2024-03-29T08:42:50;32.27;;;0.80;;
3817;SDS011;1924;48.078;11.516;2024-03-29T08:45:17;32.27;;;0.80;;
3817;SDS011;1924;48.078;11.516;2024-03-29T08:47:43;32.47;;;0.80;;
3817;SDS011;1924;48.078;11.516;2024-03-29T08:50:09;32.13;;;0.80;;
3817;SDS011;1924;48.078;11.516;2024-03-29T08:52:36;32.30;;;0.80;;
3817;SDS011;1924;48.078;11.516;2024-03-29T08:55:04;32.40;;;0.80;;
3817;SDS011;1924;48.078;11.516;2024-03-29T08:57:31;32.50;;;0.80;;
3817;SDS011;1924;48.078;11.516;2024-03-29T09:00:00;32.33;;;0.80;;
3817;SDS011;1924;48.078;11.516;2024-03-29T09:02:28;32.47;;;0.80;;
3817;SDS011;1924;48.078;11.516;2024-03-29T09:04:55;32.20;;;0.80;;
3817;SDS011;1924;48.078;11.516;2024-03-29T09:07:23;32.40;;;0.80;;
3817;SDS011;1924;48.078;11.516;2024-03-29T09:09:49;32.60;;;0.80;;
3817;SDS011;1924;48.078;11.516;2024-03-29T09:12:16;32.50;;;0.80;;
3817;SDS011;1924;48.078;11.516;2024-03-29T09:14:44;32.17;;;0.80;;
3817;SDS011;1924;48.078;11.516;2024-03-29T09:17:12;32.60;;;0.80;;
3817;SDS011;1924;48.078;11.516;2024-03-29T09:19:38;32.57;;;0.80;;
3817;SDS011;1924;48.078;11.516;2024-03-29T09:22:05;32.57;;;0.80;;
3817;SDS011;1924;48.078;11.516;2024-03-29T09:24:32;32.60;;;0.80;;
3817;SDS011;1924;48.078;11.516;2024-03-29T09:26:59;32.73;;;0.80;;
3817;SDS011;1924;48.078;11.516;2024-03-29T09:29:26;32.57;;;0.80;;
3817;SDS011;1924;48.078;11.516;2024-03-29T09:31:53;32.77;;;0.80;;
3817;SDS011;1924;48.078;11.516;2024-03-29T09:34:21;32.63;;;0.80;;
3817;SDS011;1924;48.078;11.516;2024-03-29T09:36:48;32.80;;;0.80;;
3817;SDS011;1924;48.078;11.516;2024-03-29T09:39:15;32.53;;;0.80;;
3817;SDS011;1924;48.078;11.516;2024-03-29T09:41:43;32.80;;;0.80;;
3817;SDS011;1924;48.078;11.516;2024-03-29T09:44:11;32.60;;;0.80;;
3817;SDS011;1924;48.078;11.516;2024-03-29T09:46:38;32.80;;;0.80;;
3817;SDS011;1924;48.078;11.516;2024-03-29T09:49:07;32.90;;;0.80;;
3817;SDS011;1924;48.078;11.516;2024-03-29T09:51:37;32.93;;;0.80;;
3817;SDS011;1924;48.078;11.516;2024-03-29T09:54:06;32.77;;;0.80;;
3817;SDS011;1924;48.078;11.516;2024-03-29T09:56:38;32.87;;;0.80;;
3817;SDS011;1924;48.078;11.516;2024-03-29T09:59:05;32.70;;;0.80;;
3817;SDS011;1924;48.078;11.516;2024-03-29T10:01:34;32.87;;;0.80;;
3817;SDS011;1924;48.078;11.516;2024-03-29T10:04:00;32.57;;;0.80;;
3817;SDS011;1924;48.078;11.516;2024-03-29T10:06:29;32.80;;;0.80;;
3817;SDS011;1924;48.078;11.516;2024-03-29T10:09:00;32.80;;;0.80;;
3817;SDS011;1924;48.078;11.516;2024-03-29T10:11:27;32.63;;;0.80;;
3817;SDS011;1924;48.078;11.516;2024-03-29T10:13:53;32.67;;;0.80;;
3817;SDS011;1924;48.078;11.516;2024-03-29T10:16:20;32.67;;;0.80;;
3817;SDS011;1924;48.078;11.516;2024-03-29T10:18:49;33.00;;;0.80;;
3817;SDS011;1924;48.078;11.516;2024-03-29T10:21:16;32.90;;;0.80;;
3817;SDS011;1924;48.078;11.516;2024-03-29T10:23:43;32.77;;;0.80;;
3817;SDS011;1924;48.078;11.516;2024-03-29T10:26:13;32.87;;;0.80;;
3817;SDS011;1924;48.078;11.516;2024-03-29T10:28:41;33.10;;;0.80;;
3817;SDS011;1924;48.078;11.516;2024-03-29T10:31:14;33.00;;;0.80;;
3817;SDS011;1924;48.078;11.516;2024-03-29T10:33:41;33.03;;;0.80;;
3817;SDS011;1924;48.078;11.516;2024-03-29T10:36:09;33.10;;;0.80;;
3817;SDS011;1924;48.078;11.516;2024-03-29T10:38:37;33.40;;;0.80;;
3817;SDS011;1924;48.078;11.516;2024-03-29T10:41:04;33.23;;;0.80;;
3817;SDS011;1924;48.078;11.516;2024-03-29T10:43:32;33.53;;;0.80;;
3817;SDS011;1924;48.078;11.516;2024-03-29T10:45:59;33.70;;;0.80;;
3817;SDS011;1924;48.078;11.516;2024-03-29T10:48:27;33.87;;;0.80;;
3817;SDS011;1924;48.078;11.516;2024-03-29T10:50:54;33.90;;;0.80;;
3817;SDS011;1924;48.078;11.516;2024-03-29T10:53:22;33.93;;;0.80;;
3817;SDS011;1924;48.078;11.516;2024-03-29T10:55:51;33.97;;;0.80;;
3817;SDS011;1924;48.078;11.516;2024-03-29T10:58:20;33.97;;;0.80;;
3817;SDS011;1924;48.078;11.516;2024-03-29T11:00:53;34.17;;;0.80;;
3817;SDS011;1924;48.078;11.516;2024-03-29T11:03:25;34.03;;;0.80;;
3817;SDS011;1924;48.078;11.516;2024-03-29T11:05:59;33.93;;;0.80;;
3817;SDS011;1924;48.078;11.516;2024-03-29T11:08:31;33.97;;;0.80;;
3817;SDS011;1924;48.078;11.516;2024-03-29T11:11:00;34.10;;;0.80;;
3817;SDS011;1924;48.078;11.516;2024-03-29T11:13:31;34.17;;;0.80;;
3817;SDS011;1924;48.078;11.516;2024-03-29T11:16:05;34.07;;;0.80;;
3817;SDS011;1924;48.078;11.516;2024-03-29T11:18:32;34.00;;;0.80;;
3817;SDS011;1924;48.078;11.516;2024-03-29T11:21:00;33.97;;;0.80;;
3817;SDS011;1924;48.078;11.516;2024-03-29T11:23:31;33.70;;;0.80;;
3817;SDS011;1924;48.078;11.516;2024-03-29T11:25:58;33.90;;;0.80;;
3817;SDS011;1924;48.078;11.516;2024-03-29T11:28:26;33.73;;;0.80;;
3817;SDS011;1924;48.078;11.516;2024-03-29T11:30:57;34.17;;;0.80;;
3817;SDS011;1924;48.078;11.516;2024-03-29T11:33:31;34.20;;;0.80;;
3817;SDS011;1924;48.078;11.516;2024-03-29T11:35:58;34.03;;;0.80;;
3817;SDS011;1924;48.078;11.516;2024-03-29T11:38:30;34.13;;;0.80;;
3817;SDS011;1924;48.078;11.516;2024-03-29T11:41:02;34.13;;;0.80;;
3817;SDS011;1924;48.078;11.516;2024-03-29T11:43:30;34.27;;;0.80;;
3817;SDS011;1924;48.078;11.516;2024-03-29T11:45:57;34.23;;;0.80;;
3817;SDS011;1924;48.078;11.516;2024-03-29T11:48:27;33.83;;;0.80;;
3817;SDS011;1924;48.078;11.516;2024-03-29T11:50:56;34.17;;;0.80;;
3817;SDS011;1924;48.078;11.516;2024-03-29T11:53:23;34.27;;;0.80;;
3817;SDS011;1924;48.078;11.516;2024-03-29T11:55:50;34.33;;;0.80;;
3817;SDS011;1924;48.078;11.516;2024-03-29T11:58:19;34.40;;;0.80;;
3817;SDS011;1924;48.078;11.516;2024-03-29T12:00:47;34.40;;;0.80;;
3817;SDS011;1924;48.078;11.516;2024-03-29T12:03:15;34.47;;;0.80;;
3817;SDS011;1924;48.078;11.516;2024-03-29T12:05:42;34.17;;;0.80;;
3817;SDS011;1924;48.078;11.516;2024-03-29T12:08:10;34.53;;;0.80;;
3817;SDS011;1924;48.078;11.516;2024-03-29T12:10:37;34.57;;;0.80;;
3817;SDS011;1924;48.078;11.516;2024-03-29T12:13:04;34.33;;;0.80;;
3817;SDS011;1924;48.078;11.516;2024-03-29T12:15:32;34.50;;;0.80;;
3817;SDS011;1924;48.078;11.516;2024-03-29T12:18:00;34.60;;;0.80;;
3817;SDS011;1924;48.078;11.516;2024-03-29T12:20:28;34.63;;;0.80;;
3817;SDS011;1924;48.078;11.516;2024-03-29T12:22:55;34.67;;;0.80;;
3817;SDS011;1924;48.078;11.516;2024-03-29T12:25:23;34.93;;;0.80;;
3817;SDS011;1924;48.078;11.516;2024-03-29T12:27:50;35.07;;;0.80;;
3817;SDS011;1924;48.078;11.516;2024-03-29T12:30:16;35.37;;;0.80;;
3817;SDS011;1924;48.078;11.516;2024-03-29T12:32:43;35.57;;;0.80;;
3817;SDS011;1924;48.078;11.516;2024-03-29T12:35:11;35.57;;;0.80;;
3817;SDS011;1924;48.078;11.516;2024-03-29T12:37:46;35.57;;;0.80;;
3817;SDS011;1924;48.078;11.516;2024-03-29T12:40:15;35.53;;;0.80;;
3817;SDS011;1924;48.078;11.516;2024-03-29T12:42:48;36.00;;;0.80;;
3817;SDS011;1924;48.078;11.516;2024-03-29T12:45:16;35.87;;;0.80;;
3817;SDS011;1924;48.078;11.516;2024-03-29T12:47:43;35.73;;;0.80;;
3817;SDS011;1924;48.078;11.516;2024-03-29T12:50:12;35.67;;;0.80;;
3817;SDS011;1924;48.078;11.516;2024-03-29T12:52:41;35.80;;;0.80;;
3817;SDS011;1924;48.078;11.516;2024-03-29T12:55:08;35.97;;;0.80;;
3817;SDS011;1924;48.078;11.516;2024-03-29T12:57:35;36.37;;;0.80;;
3817;SDS011;1924;48.078;11.516;2024-03-29T13:00:07;36.23;;;0.80;;
3817;SDS011;1924;48.078;11.516;2024-03-29T13:02:35;36.37;;;0.80;;
3817;SDS011;1924;48.078;11.516;2024-03-29T13:05:03;36.17;;;0.80;;
3817;SDS011;1924;48.078;11.516;2024-03-29T13:07:30;36.20;;;0.80;;
3817;SDS011;1924;48.078;11.516;2024-03-29T13:09:57;36.17;;;0.80;;
3817;SDS011;1924;48.078;11.516;2024-03-29T13:12:27;36.20;;;0.80;;
3817;SDS011;1924;48.078;11.516;2024-03-29T13:14:54;35.93;;;0.80;;
3817;SDS011;1924;48.078;11.516;2024-03-29T13:17:22;36.07;;;0.80;;
3817;SDS011;1924;48.078;11.516;2024-03-29T13:19:49;35.93;;;0.80;;
3817;SDS011;1924;48.078;11.516;2024-03-29T13:22:16;36.20;;;0.80;;
3817;SDS011;1924;48.078;11.516;2024-03-29T13:24:43;36.00;;;0.80;;
3817;SDS011;1924;48.078;11.516;2024-03-29T13:27:10;36.07;;;0.80;;
3817;SDS011;1924;48.078;11.516;2024-03-29T13:29:37;35.97;;;0.80;;
3817;SDS011;1924;48.078;11.516;2024-03-29T13:32:05;36.13;;;0.80;;
3817;SDS011;1924;48.078;11.516;2024-03-29T13:34:33;35.97;;;0.80;;
3817;SDS011;1924;48.078;11.516;2024-03-29T13:37:00;36.20;;;0.80;;
3817;SDS011;1924;48.078;11.516;2024-03-29T13:39:26;36.13;;;0.80;;
3817;SDS011;1924;48.078;11.516;2024-03-29T13:41:53;36.03;;;0.80;;
3817;SDS011;1924;48.078;11.516;2024-03-29T13:44:20;36.20;;;0.80;;
3817;SDS011;1924;48.078;11.516;2024-03-29T13:46:47;35.87;;;0.80;;
3817;SDS011;1924;48.078;11.516;2024-03-29T13:49:13;36.13;;;0.80;;
3817;SDS011;1924;48.078;11.516;2024-03-29T13:51:46;35.87;;;0.80;;
3817;SDS011;1924;48.078;11.516;2024-03-29T13:54:13;36.00;;;0.80;;
3817;SDS011;1924;48.078;11.516;2024-03-29T13:56:40;36.17;;;0.80;;
3817;SDS011;1924;48.078;11.516;2024-03-29T13:59:06;36.20;;;0.80;;
3817;SDS011;1924;48.078;11.516;2024-03-29T14:01:33;35.97;;;0.80;;
3817;SDS011;1924;48.078;11.516;2024-03-29T14:04:00;35.97;;;0.80;;
3817;SDS011;1924;48.078;11.516;2024-03-29T14:06:27;35.97;;;0.80;;
3817;SDS011;1924;48.078;11.516;2024-03-29T14:08:55;35.83;;;0.80;;
3817;SDS011;1924;48.078;11.516;2024-03-29T14:11:22;35.63;;;0.80;;
3817;SDS011;1924;48.078;11.516;2024-03-29T14:13:49;35.87;;;0.80;;
3817;SDS011;1924;48.078;11.516;2024-03-29T14:16:20;35.93;;;0.80;;
3817;SDS011;1924;48.078;11.516;2024-03-29T14:18:47;36.00;;;0.80;;
3817;SDS011;1924;48.078;11.516;2024-03-29T14:21:14;35.80;;;0.80;;
3817;SDS011;1924;48.078;11.516;2024-03-29T14:23:41;35.97;;;0.80;;
3817;SDS011;1924;48.078;11.516;2024-03-29T14:26:09;35.87;;;0.80;;
3817;SDS011;1924;48.078;11.516;2024-03-29T14:28:35;35.77;;;0.80;;
3817;SDS011;1924;48.078;11.516;2024-03-29T14:31:02;35.77;;;0.80;;
3817;SDS011;1924;48.078;11.516;2024-03-29T14:33:33;35.77;;;0.80;;
3817;SDS011;1924;48.078;11.516;2024-03-29T14:36:01;35.67;;;0.83;;
3817;SDS011;1924;48.078;11.516;2024-03-29T14:38:28;35.50;;;0.80;;
3817;SDS011;1924;48.078;11.516;2024-03-29T14:40:55;35.67;;;0.80;;
3817;SDS011;1924;48.078;11.516;2024-03-29T14:43:23;35.80;;;0.80;;
3817;SDS011;1924;48.078;11.516;2024-03-29T14:45:50;35.57;;;0.80;;
3817;SDS011;1924;48.078;11.516;2024-03-29T14:48:17;35.80;;;0.80;;
3817;SDS011;1924;48.078;11.516;2024-03-29T14:50:44;35.63;;;0.80;;
3817;SDS011;1924;48.078;11.516;2024-03-29T14:53:11;35.60;;;0.80;;
3817;SDS011;1924;48.078;11.516;2024-03-29T14:55:38;35.70;;;0.80;;
3817;SDS011;1924;48.078;11.516;2024-03-29T14:58:05;35.57;;;0.80;;
3817;SDS011;1924;48.078;11.516;2024-03-29T15:00:34;35.67;;;0.80;;
3817;SDS011;1924;48.078;11.516;2024-03-29T15:03:00;35.70;;;0.80;;
3817;SDS011;1924;48.078;11.516;2024-03-29T15:05:27;35.70;;;0.80;;
3817;SDS011;1924;48.078;11.516;2024-03-29T15:07:54;35.43;;;0.80;;
3817;SDS011;1924;48.078;11.516;2024-03-29T15:10:21;35.43;;;0.80;;
3817;SDS011;1924;48.078;11.516;2024-03-29T15:12:49;35.57;;;0.80;;
3817;SDS011;1924;48.078;11.516;2024-03-29T15:15:15;35.70;;;0.80;;
3817;SDS011;1924;48.078;11.516;2024-03-29T15:17:45;35.60;;;0.80;;
3817;SDS011;1924;48.078;11.516;2024-03-29T15:20:11;35.37;;;0.80;;
3817;SDS011;1924;48.078;11.516;2024-03-29T15:22:40;35.37;;;0.80;;
3817;SDS011;1924;48.078;11.516;2024-03-29T15:25:09;35.60;;;0.80;;
3817;SDS011;1924;48.078;11.516;2024-03-29T15:27:36;35.37;;;0.80;;
3817;SDS011;1924;48.078;11.516;2024-03-29T15:30:16;35.50;;;0.80;;
3817;SDS011;1924;48.078;11.516;2024-03-29T15:32:44;35.80;;;0.80;;
3817;SDS011;1924;48.078;11.516;2024-03-29T15:35:11;35.47;;;0.80;;
3817;SDS011;1924;48.078;11.516;2024-03-29T15:37:38;35.53;;;0.80;;
3817;SDS011;1924;48.078;11.516;2024-03-29T15:40:05;35.67;;;0.80;;
3817;SDS011;1924;48.078;11.516;2024-03-29T15:42:35;35.37;;;0.80;;
3817;SDS011;1924;48.078;11.516;2024-03-29T15:45:04;35.33;;;0.80;;
3817;SDS011;1924;48.078;11.516;2024-03-29T15:47:31;35.50;;;0.80;;
3817;SDS011;1924;48.078;11.516;2024-03-29T15:50:00;35.53;;;0.80;;
3817;SDS011;1924;48.078;11.516;2024-03-29T15:52:27;35.27;;;0.80;;
3817;SDS011;1924;48.078;11.516;2024-03-29T15:54:54;35.60;;;0.80;;
3817;SDS011;1924;48.078;11.516;2024-03-29T15:57:21;35.37;;;0.80;;
3817;SDS011;1924;48.078;11.516;2024-03-29T15:59:47;35.30;;;0.80;;
3817;SDS011;1924;48.078;11.516;2024-03-29T16:02:13;35.37;;;0.80;;
3817;SDS011;1924;48.078;11.516;2024-03-29T16:04:40;35.53;;;0.80;;
3817;SDS011;1924;48.078;11.516;2024-03-29T16:07:08;35.47;;;0.80;;
3817;SDS011;1924;48.078;11.516;2024-03-29T16:09:36;35.37;;;0.80;;
3817;SDS011;1924;48.078;11.516;2024-03-29T16:12:02;35.33;;;0.80;;
3817;SDS011;1924;48.078;11.516;2024-03-29T16:14:31;35.27;;;0.80;;
3817;SDS011;1924;48.078;11.516;2024-03-29T16:16:58;35.67;;;0.90;;
3817;SDS011;1924;48.078;11.516;2024-03-29T16:19:25;35.07;;;0.80;;
3817;SDS011;1924;48.078;11.516;2024-03-29T16:21:50;35.67;;;0.80;;
3817;SDS011;1924;48.078;11.516;2024-03-29T16:24:19;35.47;;;0.90;;
3817;SDS011;1924;48.078;11.516;2024-03-29T16:26:45;35.57;;;0.80;;
3817;SDS011;1924;48.078;11.516;2024-03-29T16:29:11;35.13;;;0.80;;
3817;SDS011;1924;48.078;11.516;2024-03-29T16:31:39;35.20;;;0.80;;
3817;SDS011;1924;48.078;11.516;2024-03-29T16:34:06;35.50;;;0.90;;
3817;SDS011;1924;48.078;11.516;2024-03-29T16:36:32;35.27;;;0.87;;
3817;SDS011;1924;48.078;11.516;2024-03-29T16:38:59;35.57;;;0.90;;
3817;SDS011;1924;48.078;11.516;2024-03-29T16:41:26;35.10;;;0.80;;
3817;SDS011;1924;48.078;11.516;2024-03-29T16:43:53;35.50;;;0.80;;
3817;SDS011;1924;48.078;11.516;2024-03-29T16:46:20;35.50;;;0.90;;
3817;SDS011;1924;48.078;11.516;2024-03-29T16:48:47;35.43;;;0.90;;
3817;SDS011;1924;48.078;11.516;2024-03-29T16:51:13;35.20;;;0.90;;
3817;SDS011;1924;48.078;11.516;2024-03-29T16:53:40;35.40;;;0.90;;
3817;SDS011;1924;48.078;11.516;2024-03-29T16:56:06;35.47;;;0.90;;
3817;SDS011;1924;48.078;11.516;2024-03-29T16:58:34;35.47;;;0.90;;
3817;SDS011;1924;48.078;11.516;2024-03-29T17:01:00;35.47;;;0.90;;
3817;SDS011;1924;48.078;11.516;2024-03-29T17:03:27;35.27;;;0.90;;
3817;SDS011;1924;48.078;11.516;2024-03-29T17:05:52;35.43;;;0.90;;
3817;SDS011;1924;48.078;11.516;2024-03-29T17:08:19;35.27;;;0.93;;
3817;SDS011;1924;48.078;11.516;2024-03-29T17:10:45;35.13;;;0.90;;
3817;SDS011;1924;48.078;11.516;2024-03-29T17:13:11;35.33;;;0.90;;
3817;SDS011;1924;48.078;11.516;2024-03-29T17:15:41;35.30;;;1.00;;
3817;SDS011;1924;48.078;11.516;2024-03-29T17:18:09;35.27;;;0.90;;
3817;SDS011;1924;48.078;11.516;2024-03-29T17:20:35;35.20;;;0.97;;
3817;SDS011;1924;48.078;11.516;2024-03-29T17:23:02;35.37;;;1.03;;
3817;SDS011;1924;48.078;11.516;2024-03-29T17:25:28;34.90;;;0.97;;
3817;SDS011;1924;48.078;11.516;2024-03-29T17:27:55;35.27;;;0.93;;
3817;SDS011;1924;48.078;11.516;2024-03-29T17:30:21;35.27;;;0.90;;
3817;SDS011;1924;48.078;11.516;2024-03-29T17:32:49;35.07;;;0.90;;
3817;SDS011;1924;48.078;11.516;2024-03-29T17:35:15;35.37;;;0.93;;
3817;SDS011;1924;48.078;11.516;2024-03-29T17:37:41;35.07;;;1.00;;
3817;SDS011;1924;48.078;11.516;2024-03-29T17:40:07;35.00;;;0.97;;
3817;SDS011;1924;48.078;11.516;2024-03-29T17:42:35;35.27;;;1.00;;
3817;SDS011;1924;48.078;11.516;2024-03-29T17:45:01;35.23;;;1.00;;
3817;SDS011;1924;48.078;11.516;2024-03-29T17:47:28;35.23;;;1.00;;
3817;SDS011;1924;48.078;11.516;2024-03-29T17:49:55;35.20;;;1.00;;
3817;SDS011;1924;48.078;11.516;2024-03-29T17:52:22;35.10;;;0.90;;
3817;SDS011;1924;48.078;11.516;2024-03-29T17:54:47;35.20;;;1.00;;
3817;SDS011;1924;48.078;11.516;2024-03-29T17:57:14;35.60;;;1.20;;
3817;SDS011;1924;48.078;11.516;2024-03-29T17:59:40;35.27;;;1.00;;
3817;SDS011;1924;48.078;11.516;2024-03-29T18:02:07;35.30;;;1.10;;
3817;SDS011;1924;48.078;11.516;2024-03-29T18:04:33;35.23;;;1.10;;
3817;SDS011;1924;48.078;11.516;2024-03-29T18:07:01;35.17;;;1.00;;
3817;SDS011;1924;48.078;11.516;2024-03-29T18:09:27;35.10;;;1.00;;
3817;SDS011;1924;48.078;11.516;2024-03-29T18:11:54;35.07;;;1.00;;
3817;SDS011;1924;48.078;11.516;2024-03-29T18:14:20;35.30;;;1.10;;
3817;SDS011;1924;48.078;11.516;2024-03-29T18:16:46;35.10;;;1.00;;
3817;SDS011;1924;48.078;11.516;2024-03-29T18:19:13;35.10;;;1.00;;
3817;SDS011;1924;48.078;11.516;2024-03-29T18:21:40;35.13;;;1.13;;
3817;SDS011;1924;48.078;11.516;2024-03-29T18:24:11;35.40;;;1.20;;
3817;SDS011;1924;48.078;11.516;2024-03-29T18:26:37;34.90;;;1.10;;
3817;SDS011;1924;48.078;11.516;2024-03-29T18:29:03;35.10;;;1.17;;
3817;SDS011;1924;48.078;11.516;2024-03-29T18:31:30;35.27;;;1.03;;
3817;SDS011;1924;48.078;11.516;2024-03-29T18:33:58;34.93;;;1.00;;
3817;SDS011;1924;48.078;11.516;2024-03-29T18:36:24;34.97;;;1.00;;
3817;SDS011;1924;48.078;11.516;2024-03-29T18:38:50;34.93;;;1.00;;
3817;SDS011;1924;48.078;11.516;2024-03-29T18:41:18;35.13;;;1.10;;
3817;SDS011;1924;48.078;11.516;2024-03-29T18:43:48;34.90;;;1.10;;
3817;SDS011;1924;48.078;11.516;2024-03-29T18:46:14;34.90;;;1.00;;
3817;SDS011;1924;48.078;11.516;2024-03-29T18:48:42;35.20;;;1.10;;
3817;SDS011;1924;48.078;11.516;2024-03-29T18:51:09;34.80;;;1.10;;
3817;SDS011;1924;48.078;11.516;2024-03-29T18:53:35;35.17;;;1.10;;
3817;SDS011;1924;48.078;11.516;2024-03-29T18:56:05;34.93;;;1.00;;
3817;SDS011;1924;48.078;11.516;2024-03-29T18:58:32;34.80;;;0.93;;
3817;SDS011;1924;48.078;11.516;2024-03-29T19:00:59;34.97;;;1.00;;
3817;SDS011;1924;48.078;11.516;2024-03-29T19:03:25;35.00;;;1.17;;